createdAt,value
2018-08-04T00:01:32.252Z,99.90
2018-08-04T00:04:01.594Z,99.90
2018-08-04T00:06:33.130Z,99.90
2018-08-04T00:09:02.682Z,99.90
2018-08-04T00:11:32.600Z,99.90
2018-08-04T00:14:01.890Z,99.90
2018-08-04T00:16:31.157Z,99.90
2018-08-04T00:19:00.465Z,99.90
2018-08-04T00:21:29.811Z,99.90
2018-08-04T00:23:59.432Z,99.90
2018-08-04T00:26:32.618Z,99.90
2018-08-04T00:29:02.809Z,99.90
2018-08-04T00:31:33.284Z,99.90
2018-08-04T00:34:02.550Z,99.90
2018-08-04T00:36:31.875Z,99.90
2018-08-04T00:39:01.918Z,99.90
2018-08-04T00:41:31.230Z,99.90
2018-08-04T00:44:00.506Z,99.90
2018-08-04T00:46:29.863Z,99.90
2018-08-04T00:48:59.093Z,99.90
2018-08-04T00:51:30.363Z,99.90
2018-08-04T00:53:59.611Z,99.90
2018-08-04T00:56:28.845Z,99.90
2018-08-04T00:58:58.144Z,99.90
2018-08-04T01:01:27.332Z,99.90
2018-08-04T01:03:56.734Z,99.90
2018-08-04T01:06:26.268Z,99.90
2018-08-04T01:08:55.518Z,99.90
2018-08-04T01:11:25.463Z,99.90
2018-08-04T01:13:56.465Z,99.90
2018-08-04T01:16:25.725Z,99.90
2018-08-04T01:18:55.496Z,99.90
2018-08-04T01:21:24.990Z,99.90
2018-08-04T01:41:58.735Z,99.90
2018-08-04T01:44:28.100Z,99.90
2018-08-04T01:46:57.906Z,99.90
2018-08-04T01:49:27.189Z,99.90
2018-08-04T02:10:01.479Z,99.90
2018-08-04T02:12:31.392Z,99.90
2018-08-04T02:15:01.599Z,99.90
2018-08-04T02:17:31.017Z,99.90
2018-08-04T02:20:00.262Z,99.90
2018-08-04T02:22:29.520Z,99.90
2018-08-04T02:24:58.853Z,99.90
2018-08-04T02:27:28.337Z,99.90
2018-08-04T02:29:57.565Z,99.90
2018-08-04T02:50:31.140Z,99.90
2018-08-04T02:53:00.999Z,99.90
2018-08-04T02:55:30.329Z,99.90
2018-08-04T02:58:01.180Z,99.90
2018-08-04T03:00:30.515Z,99.90
2018-08-04T03:03:00.725Z,99.90
2018-08-04T03:05:30.570Z,99.90
2018-08-04T03:07:59.922Z,99.90
2018-08-04T03:10:29.180Z,99.90
2018-08-04T03:12:58.483Z,99.90
2018-08-04T03:15:27.960Z,99.90
2018-08-04T03:17:57.172Z,99.90
2018-08-04T03:20:26.456Z,99.90
2018-08-04T03:22:55.825Z,99.90
2018-08-04T03:25:25.195Z,99.90
2018-08-04T03:27:54.401Z,99.90
2018-08-04T03:30:23.861Z,99.90
2018-08-04T03:32:53.182Z,99.90
2018-08-04T03:35:23.645Z,99.90
2018-08-04T03:37:54.372Z,99.90
2018-08-04T03:40:23.841Z,99.90
2018-08-04T03:42:53.146Z,99.90
2018-08-04T03:45:23.519Z,99.90
2018-08-04T03:47:52.769Z,99.90
2018-08-04T03:50:21.994Z,99.90
2018-08-04T03:52:51.250Z,99.90
2018-08-04T03:55:20.584Z,99.90
2018-08-04T03:57:49.909Z,99.90
2018-08-04T04:00:19.160Z,99.90
2018-08-04T04:02:49.141Z,99.90
2018-08-04T04:05:18.409Z,99.90
2018-08-04T04:07:47.977Z,99.90
2018-08-04T04:10:17.294Z,99.90
2018-08-04T04:12:47.221Z,99.90
2018-08-04T04:15:16.522Z,99.90
2018-08-04T04:17:48.383Z,99.90
2018-08-04T04:20:19.967Z,99.90
2018-08-04T04:22:49.738Z,99.90
2018-08-04T04:25:19.755Z,99.90
2018-08-04T04:27:48.996Z,99.90
2018-08-04T04:30:18.274Z,99.90
2018-08-04T04:32:47.526Z,99.90
2018-08-04T04:35:16.766Z,99.90
2018-08-04T04:37:46.086Z,99.90
2018-08-04T04:40:15.352Z,99.90
2018-08-04T04:42:45.267Z,99.90
2018-08-04T04:45:14.537Z,99.90
2018-08-04T04:47:44.642Z,99.90
2018-08-04T04:50:13.852Z,99.90
2018-08-04T05:10:45.848Z,99.90
2018-08-04T05:13:15.289Z,99.90
2018-08-04T05:15:44.478Z,99.90
2018-08-04T05:18:13.755Z,99.90
2018-08-04T05:20:44.342Z,99.90
2018-08-04T05:23:13.863Z,99.90
2018-08-04T05:25:43.770Z,99.90
2018-08-04T05:28:12.993Z,99.90
2018-08-04T05:30:44.497Z,99.90
2018-08-04T05:33:14.412Z,99.90
2018-08-04T05:53:49.141Z,99.90
2018-08-04T05:56:19.002Z,99.90
2018-08-04T05:58:48.226Z,99.90
2018-08-04T06:01:19.146Z,99.90
2018-08-04T06:21:52.880Z,99.90
2018-08-04T06:24:22.258Z,99.90
2018-08-04T06:26:51.527Z,99.90
2018-08-04T06:29:20.813Z,99.90
2018-08-04T06:31:50.789Z,99.90
2018-08-04T06:34:19.994Z,99.90
2018-08-04T06:36:49.164Z,99.90
2018-08-04T06:57:22.639Z,99.90
2018-08-04T07:17:56.427Z,99.90
2018-08-04T07:20:26.090Z,99.90
2018-08-04T07:22:55.540Z,99.90
2018-08-04T07:25:24.790Z,99.90
2018-08-04T07:27:54.110Z,99.90
2018-08-04T07:30:23.454Z,99.90
2018-08-04T07:50:57.111Z,99.90
2018-08-04T07:53:26.505Z,99.90
2018-08-04T07:55:55.807Z,99.90
2018-08-04T07:58:25.086Z,99.90
2018-08-04T08:00:54.393Z,99.90
2018-08-04T08:03:23.729Z,99.90
2018-08-04T08:05:53.338Z,99.90
2018-08-04T08:08:22.818Z,99.90
2018-08-04T08:10:52.170Z,99.90
2018-08-04T08:13:23.507Z,99.90
2018-08-04T08:15:54.013Z,99.90
2018-08-04T08:18:23.446Z,99.90
2018-08-04T08:20:52.704Z,99.90
2018-08-04T08:23:22.034Z,99.90
2018-08-04T08:26:04.145Z,99.90
2018-08-04T08:28:33.637Z,99.90
2018-08-04T08:31:03.269Z,99.90
2018-08-04T08:33:32.769Z,99.90
2018-08-04T08:36:02.086Z,99.90
2018-08-04T08:38:31.817Z,99.90
2018-08-04T08:41:01.611Z,99.90
2018-08-04T08:43:31.737Z,99.90
2018-08-04T08:46:01.094Z,99.90
2018-08-04T08:48:30.329Z,99.90
2018-08-04T08:50:59.647Z,99.90
2018-08-04T08:53:29.081Z,99.90
2018-08-04T08:55:58.145Z,99.90
2018-08-04T08:58:28.297Z,99.90
2018-08-04T09:00:57.466Z,99.90
2018-08-04T09:03:27.557Z,99.90
2018-08-04T09:05:57.533Z,99.90
2018-08-04T09:08:27.397Z,99.90
2018-08-04T09:10:56.632Z,99.90
2018-08-04T09:31:30.601Z,99.90
2018-08-04T09:34:01.274Z,99.90
2018-08-04T09:36:30.551Z,99.90
2018-08-04T09:38:59.760Z,99.90
2018-08-04T09:41:29.203Z,99.90
2018-08-04T09:43:58.493Z,99.90
2018-08-04T09:46:28.603Z,99.90
2018-08-04T09:48:58.229Z,99.90
2018-08-04T09:51:28.178Z,99.90
2018-08-04T09:53:58.197Z,99.00
2018-08-04T09:56:27.473Z,99.10
2018-08-04T09:58:57.458Z,96.80
2018-08-04T10:01:31.897Z,87.80
2018-08-04T10:04:02.265Z,85.90
2018-08-04T10:06:32.458Z,84.10
2018-08-04T10:27:06.464Z,76.90
2018-08-04T10:29:36.192Z,80.20
2018-08-04T10:32:05.845Z,82.30
2018-08-04T10:34:35.032Z,74.40
2018-08-04T10:37:05.179Z,76.10
2018-08-04T10:57:39.242Z,70.10
2018-08-04T11:00:09.763Z,69.50
2018-08-04T11:02:39.113Z,66.70
2018-08-04T11:05:09.251Z,67.50
2018-08-04T11:07:38.506Z,64.80
2018-08-04T11:10:07.996Z,64.10
2018-08-04T11:12:37.369Z,65.10
2018-08-04T11:15:07.914Z,64.80
2018-08-04T11:17:37.190Z,63.70
2018-08-04T11:20:06.400Z,63.40
2018-08-04T11:22:36.486Z,63.50
2018-08-04T11:25:05.735Z,63.30
2018-08-04T11:45:39.287Z,57.20
2018-08-04T11:48:08.480Z,56.60
2018-08-04T11:50:37.860Z,55.70
2018-08-04T11:53:07.424Z,56.50
2018-08-04T11:55:37.401Z,55.50
2018-08-04T11:58:06.706Z,56.30
2018-08-04T12:00:36.715Z,55.10
2018-08-04T12:21:10.147Z,53.60
2018-08-04T12:23:39.337Z,53.00
2018-08-04T12:26:09.327Z,53.40
2018-08-04T12:28:38.573Z,52.70
2018-08-04T12:49:12.562Z,52.80
2018-08-04T12:51:41.849Z,53.80
2018-08-04T13:12:16.634Z,53.60
2018-08-04T13:14:46.543Z,58.20
2018-08-04T13:17:15.994Z,59.60
2018-08-04T13:19:45.263Z,60.10
2018-08-04T13:22:15.518Z,59.80
2018-08-04T13:42:49.322Z,60.40
2018-08-04T13:45:18.617Z,61.70
2018-08-04T13:47:48.479Z,61.40
2018-08-04T13:50:17.786Z,60.40
2018-08-04T13:52:47.686Z,60.20
2018-08-04T13:55:18.510Z,60.50
2018-08-04T13:57:47.856Z,60.30
2018-08-04T14:00:18.027Z,59.20
2018-08-04T14:02:47.290Z,58.80
2018-08-04T14:05:16.572Z,59.60
2018-08-04T14:07:46.035Z,59.90
2018-08-04T14:28:20.555Z,55.60
2018-08-04T14:30:49.856Z,55.70
2018-08-04T14:33:18.989Z,54.90
2018-08-04T14:35:49.111Z,53.20
2018-08-04T14:38:19.467Z,49.50
2018-08-04T14:40:48.935Z,48.30
2018-08-04T14:43:18.151Z,46.00
2018-08-04T14:45:48.558Z,46.50
2018-08-04T14:50:46.499Z,43.30
2018-08-04T14:53:15.843Z,45.90
2018-08-04T15:13:49.264Z,40.50
2018-08-04T15:34:23.280Z,42.50
2018-08-04T15:36:53.835Z,41.10
2018-08-04T15:39:23.214Z,41.20
2018-08-04T15:59:56.267Z,46.30
2018-08-04T16:02:26.818Z,45.30
2018-08-04T16:04:56.748Z,46.30
2018-08-04T16:07:27.146Z,48.50
2018-08-04T16:28:01.241Z,52.00
2018-08-04T16:30:31.371Z,52.60
2018-08-04T16:33:00.649Z,53.40
2018-08-04T16:35:30.718Z,52.60
2018-08-04T16:38:01.289Z,53.80
2018-08-04T16:40:30.454Z,54.40
2018-08-04T16:43:00.386Z,55.20
2018-08-04T16:45:29.962Z,55.30
2018-08-04T16:47:59.135Z,53.90
2018-08-04T16:50:28.402Z,54.30
2018-08-04T16:52:58.202Z,54.90
2018-08-04T16:55:27.450Z,54.50
2018-08-04T16:57:57.375Z,55.20
2018-08-04T17:00:26.767Z,56.70
2018-08-04T17:02:56.649Z,55.80
2018-08-04T17:05:27.329Z,57.40
2018-08-04T17:07:56.658Z,56.50
2018-08-04T17:10:26.173Z,56.20
2018-08-04T17:12:55.429Z,57.30
2018-08-04T17:15:26.238Z,57.60
2018-08-04T17:17:55.461Z,58.10
2018-08-04T17:20:25.445Z,59.70
2018-08-04T17:22:55.734Z,59.00
2018-08-04T17:25:25.091Z,60.80
2018-08-04T17:27:54.461Z,59.70
2018-08-04T17:30:23.671Z,59.50
2018-08-04T17:32:53.306Z,59.90
2018-08-04T17:35:22.624Z,60.50
2018-08-04T17:37:52.882Z,61.80
2018-08-04T17:40:22.141Z,61.70
2018-08-04T18:00:55.163Z,60.60
2018-08-04T18:03:25.451Z,61.20
2018-08-04T18:05:55.359Z,60.80
2018-08-04T18:08:24.756Z,60.60
2018-08-04T18:10:54.417Z,62.80
2018-08-04T18:31:21.205Z,72.70
2018-08-04T18:33:50.551Z,76.70
2018-08-04T18:36:20.475Z,77.80
2018-08-04T18:56:54.310Z,86.90
2018-08-04T18:59:24.431Z,89.70
2018-08-04T19:01:55.091Z,88.50
2018-08-04T19:04:24.236Z,89.40
2018-08-04T19:06:54.328Z,90.10
2018-08-04T19:09:23.628Z,90.50
2018-08-04T19:11:53.580Z,91.30
2018-08-04T19:14:22.810Z,91.30
2018-08-04T19:16:52.121Z,92.70
2018-08-04T19:37:25.159Z,95.80
2018-08-04T19:39:55.250Z,95.50
2018-08-04T20:00:21.412Z,92.60
2018-08-04T20:20:54.830Z,97.40
2018-08-04T20:23:25.327Z,97.60
2018-08-04T20:25:54.489Z,98.80
2018-08-04T20:28:23.937Z,99.90
2018-08-04T20:30:53.181Z,99.90
2018-08-04T20:33:22.457Z,99.90
2018-08-04T20:35:51.834Z,99.90
2018-08-04T20:56:25.180Z,99.90
2018-08-04T20:58:54.550Z,99.90
2018-08-04T21:01:34.508Z,99.90
2018-08-04T21:04:03.871Z,99.90
2018-08-04T21:06:33.759Z,99.90
2018-08-04T21:09:03.170Z,99.90
2018-08-04T21:11:32.638Z,99.90
2018-08-04T21:14:02.809Z,99.90
2018-08-04T21:16:32.069Z,99.90
2018-08-04T21:19:01.434Z,99.90
2018-08-04T21:21:31.322Z,99.90
2018-08-04T21:24:00.755Z,99.90
2018-08-04T21:26:30.336Z,99.90
2018-08-04T21:29:00.360Z,99.90
2018-08-04T21:31:29.740Z,99.90
2018-08-04T21:33:59.709Z,99.90
2018-08-04T21:36:28.879Z,99.90
2018-08-04T21:38:58.165Z,99.90
2018-08-04T21:41:28.024Z,99.90
2018-08-04T21:43:58.436Z,99.90
2018-08-04T21:46:27.638Z,99.90
2018-08-04T21:48:56.852Z,99.90
2018-08-04T21:51:26.833Z,99.90
2018-08-04T21:53:56.646Z,99.90
2018-08-04T21:56:26.719Z,99.90
2018-08-04T21:58:55.970Z,99.90
2018-08-04T22:01:25.859Z,99.90
2018-08-04T22:03:55.672Z,99.90
2018-08-04T22:06:47.454Z,99.90
2018-08-04T22:09:22.528Z,99.90
2018-08-04T22:11:51.782Z,99.90
2018-08-04T22:14:22.397Z,99.90
2018-08-04T22:16:52.659Z,99.90
2018-08-04T22:19:21.976Z,99.90
2018-08-04T22:21:51.181Z,99.90
2018-08-04T22:24:20.706Z,99.90
2018-08-04T22:26:49.972Z,99.90
2018-08-04T22:29:19.268Z,99.90
2018-08-04T22:31:48.536Z,99.90
2018-08-04T22:34:17.857Z,99.90
2018-08-04T22:36:47.083Z,99.90
2018-08-04T22:39:16.477Z,99.90
2018-08-04T22:41:45.696Z,99.90
2018-08-04T22:44:14.910Z,99.90
2018-08-04T22:46:44.157Z,99.90
2018-08-04T22:49:13.536Z,99.90
2018-08-04T22:51:42.845Z,99.90
2018-08-04T22:54:12.119Z,99.90
2018-08-04T22:56:41.517Z,99.90
2018-08-04T22:59:12.392Z,99.90
2018-08-04T23:01:42.011Z,99.90
2018-08-04T23:04:11.741Z,99.90
2018-08-04T23:06:41.115Z,99.90
2018-08-04T23:09:10.398Z,99.90
2018-08-04T23:11:39.629Z,99.90
2018-08-04T23:14:08.976Z,99.90
2018-08-04T23:16:38.315Z,99.90
2018-08-04T23:19:07.636Z,99.90
2018-08-04T23:21:37.725Z,99.90
2018-08-04T23:24:07.732Z,99.90
2018-08-04T23:26:37.011Z,99.90
2018-08-04T23:29:06.237Z,99.90
2018-08-04T23:31:35.525Z,99.90
2018-08-04T23:34:04.762Z,99.90
2018-08-04T23:36:34.126Z,99.90
2018-08-04T23:39:03.574Z,99.90
2018-08-04T23:41:32.788Z,99.90
2018-08-04T23:44:02.849Z,99.90
2018-08-04T23:46:32.136Z,99.90
2018-08-04T23:49:01.490Z,99.90
2018-08-04T23:51:31.410Z,99.90
2018-08-04T23:54:00.715Z,99.90
2018-08-04T23:56:30.465Z,99.90
2018-08-04T23:58:59.770Z,99.90
